createdAt,value
2017-10-01T00:01:59.838Z,22.33
2017-10-01T00:04:28.689Z,17.60
2017-10-01T00:06:57.538Z,11.38
2017-10-01T00:09:26.394Z,11.40
2017-10-01T00:11:55.942Z,11.88
2017-10-01T00:14:24.610Z,11.75
2017-10-01T00:16:53.468Z,11.52
2017-10-01T00:19:22.328Z,11.27
2017-10-01T00:21:51.184Z,10.75
2017-10-01T00:24:25.237Z,11.88
2017-10-01T00:26:54.078Z,11.32
2017-10-01T00:32:00.114Z,12.85
2017-10-01T00:34:38.116Z,11.25
2017-10-01T00:37:06.969Z,11.15
2017-10-01T00:39:36.581Z,11.35
2017-10-01T00:42:06.166Z,10.57
2017-10-01T00:44:35.014Z,12.18
2017-10-01T00:47:03.869Z,10.40
2017-10-01T00:49:33.481Z,11.15
2017-10-01T00:52:02.393Z,11.10
2017-10-01T00:54:31.254Z,11.73
2017-10-01T00:57:00.185Z,10.50
2017-10-01T00:59:29.598Z,10.50
2017-10-01T01:01:58.441Z,10.63
2017-10-01T01:04:28.054Z,10.98
2017-10-01T01:06:57.669Z,10.75
2017-10-01T01:09:27.292Z,10.65
2017-10-01T01:11:56.194Z,11.70
2017-10-01T01:14:25.054Z,11.25
2017-10-01T01:16:53.975Z,10.30
2017-10-01T01:19:22.833Z,10.90
2017-10-01T01:21:51.746Z,11.32
2017-10-01T01:24:19.902Z,10.80
2017-10-01T01:26:49.184Z,10.63
2017-10-01T01:29:18.092Z,10.93
2017-10-01T01:31:47.013Z,10.35
2017-10-01T01:34:16.048Z,10.15
2017-10-01T01:36:44.257Z,10.15
2017-10-01T01:39:13.534Z,11.60
2017-10-01T01:41:42.061Z,10.07
2017-10-01T01:44:10.560Z,10.45
2017-10-01T01:46:39.411Z,10.00
2017-10-01T01:49:08.676Z,10.90
2017-10-01T01:51:36.834Z,9.35
2017-10-01T01:54:04.981Z,10.90
2017-10-01T01:56:33.486Z,10.50
2017-10-01T01:59:01.654Z,10.55
2017-10-01T02:01:30.162Z,11.30
2017-10-01T02:03:58.793Z,10.45
2017-10-01T02:06:27.176Z,9.80
2017-10-01T02:08:56.456Z,10.90
2017-10-01T02:11:24.983Z,10.50
2017-10-01T02:13:53.493Z,10.43
2017-10-01T02:16:21.683Z,10.65
2017-10-01T02:18:50.538Z,10.90
2017-10-01T02:21:19.386Z,10.50
2017-10-01T02:23:48.226Z,10.25
2017-10-01T02:26:17.073Z,11.65
2017-10-01T02:28:45.906Z,9.88
2017-10-01T02:31:14.747Z,9.70
2017-10-01T02:33:43.257Z,10.45
2017-10-01T02:36:12.113Z,10.50
2017-10-01T02:38:40.622Z,10.77
2017-10-01T02:41:09.589Z,10.40
2017-10-01T02:43:38.445Z,9.98
2017-10-01T02:46:06.605Z,9.45
2017-10-01T02:48:34.757Z,10.85
2017-10-01T02:51:04.027Z,10.45
2017-10-01T02:53:32.183Z,11.32
2017-10-01T02:56:00.689Z,11.40
2017-10-01T02:58:29.196Z,10.40
2017-10-01T03:00:58.109Z,9.48
2017-10-01T03:03:27.014Z,10.73
2017-10-01T03:05:55.520Z,10.55
2017-10-01T03:08:24.030Z,10.70
2017-10-01T03:10:52.525Z,9.32
2017-10-01T03:13:21.775Z,9.57
2017-10-01T03:15:49.747Z,10.82
2017-10-01T03:18:18.397Z,10.60
2017-10-01T03:20:47.869Z,11.50
2017-10-01T03:23:16.033Z,9.75
2017-10-01T03:25:44.534Z,10.45
2017-10-01T03:28:13.830Z,10.95
2017-10-01T03:30:41.987Z,9.02
2017-10-01T03:33:10.490Z,10.10
2017-10-01T03:35:39.777Z,11.35
2017-10-01T03:38:08.626Z,9.30
2017-10-01T03:40:37.138Z,9.85
2017-10-01T03:43:05.301Z,10.15
2017-10-01T03:45:33.448Z,8.77
2017-10-01T03:48:01.951Z,10.02
2017-10-01T03:50:30.098Z,10.80
2017-10-01T03:52:59.875Z,10.93
2017-10-01T03:55:29.330Z,11.30
2017-10-01T03:57:58.053Z,10.65
2017-10-01T04:00:29.281Z,10.82
2017-10-01T04:02:58.202Z,9.18
2017-10-01T04:08:07.435Z,9.88
2017-10-01T04:10:40.319Z,10.40
2017-10-01T04:15:45.199Z,10.93
2017-10-01T04:18:14.653Z,9.82
2017-10-01T04:20:43.847Z,10.63
2017-10-01T04:23:12.690Z,10.38
2017-10-01T04:25:41.727Z,10.77
2017-10-01T04:28:14.545Z,11.07
2017-10-01T04:30:43.394Z,10.30
2017-10-01T04:33:13.199Z,11.80
2017-10-01T04:35:42.055Z,10.88
2017-10-01T04:38:10.903Z,10.50
2017-10-01T04:40:39.747Z,10.93
2017-10-01T04:43:08.674Z,10.13
2017-10-01T04:45:37.359Z,11.12
2017-10-01T04:48:06.018Z,11.12
2017-10-01T04:50:35.450Z,10.18
2017-10-01T04:53:04.098Z,9.95
2017-10-01T04:55:32.753Z,10.48
2017-10-01T04:58:01.615Z,10.55
2017-10-01T05:00:30.474Z,10.00
2017-10-01T05:03:00.102Z,11.43
2017-10-01T05:05:28.950Z,11.00
2017-10-01T05:07:57.890Z,12.18
2017-10-01T05:10:26.726Z,11.45
2017-10-01T05:12:55.677Z,11.25
2017-10-01T05:15:24.525Z,11.77
2017-10-01T05:17:53.365Z,11.23
2017-10-01T05:20:22.040Z,10.48
2017-10-01T05:22:50.908Z,10.25
2017-10-01T05:25:20.542Z,11.27
2017-10-01T05:27:49.427Z,12.00
2017-10-01T05:30:19.074Z,14.93
2017-10-01T05:32:47.917Z,11.57
2017-10-01T05:35:17.180Z,20.50
2017-10-01T05:37:46.023Z,13.68
2017-10-01T05:40:14.888Z,11.12
2017-10-01T05:48:05.796Z,11.20
2017-10-01T05:50:35.333Z,10.05
2017-10-01T05:53:03.999Z,10.95
2017-10-01T05:55:32.849Z,11.35
2017-10-01T05:58:01.773Z,17.70
2017-10-01T06:00:30.657Z,12.55
2017-10-01T06:02:59.540Z,11.63
2017-10-01T06:05:28.378Z,44.15
2017-10-01T06:07:57.226Z,17.75
2017-10-01T06:10:26.074Z,10.93
2017-10-01T06:12:56.081Z,11.50
2017-10-01T06:15:28.610Z,11.30
2017-10-01T06:18:02.684Z,11.27
2017-10-01T06:20:32.862Z,11.77
2017-10-01T06:23:02.601Z,10.90
2017-10-01T06:25:31.455Z,11.35
2017-10-01T06:28:00.333Z,10.48
2017-10-01T06:30:29.197Z,11.65
2017-10-01T06:32:58.630Z,11.20
2017-10-01T06:35:28.383Z,11.23
2017-10-01T06:37:58.009Z,11.00
2017-10-01T06:40:27.438Z,10.77
2017-10-01T06:42:56.287Z,11.12
2017-10-01T06:45:25.150Z,12.10
2017-10-01T06:47:55.068Z,26.85
2017-10-01T06:50:23.928Z,12.18
2017-10-01T06:52:52.785Z,11.93
2017-10-01T06:55:21.462Z,11.02
2017-10-01T06:57:50.374Z,10.50
2017-10-01T07:00:19.221Z,10.80
2017-10-01T07:02:49.827Z,11.12
2017-10-01T07:05:18.645Z,12.02
2017-10-01T07:07:47.507Z,10.88
2017-10-01T07:10:16.402Z,12.18
2017-10-01T07:12:46.080Z,11.10
2017-10-01T07:15:16.187Z,11.80
2017-10-01T07:17:45.042Z,11.05
2017-10-01T07:20:13.897Z,11.35
2017-10-01T07:22:42.790Z,10.48
2017-10-01T07:25:13.426Z,11.95
2017-10-01T07:27:42.282Z,11.82
2017-10-01T07:30:11.192Z,11.18
2017-10-01T07:32:41.633Z,12.27
2017-10-01T07:35:10.153Z,11.80
2017-10-01T07:37:39.015Z,11.10
2017-10-01T07:40:08.805Z,11.20
2017-10-01T07:42:39.677Z,12.35
2017-10-01T07:45:07.849Z,12.50
2017-10-01T07:47:37.573Z,11.98
2017-10-01T07:50:06.439Z,11.98
2017-10-01T07:52:35.292Z,11.90
2017-10-01T07:55:04.198Z,12.43
2017-10-01T07:57:33.827Z,14.50
2017-10-01T08:00:02.705Z,11.73
2017-10-01T08:02:32.323Z,13.43
2017-10-01T08:05:01.830Z,12.80
2017-10-01T08:07:30.697Z,10.48
2017-10-01T08:10:00.316Z,11.38
2017-10-01T08:12:29.931Z,10.10
2017-10-01T08:14:59.273Z,11.63
2017-10-01T08:17:29.115Z,13.00
2017-10-01T08:19:58.938Z,12.48
2017-10-01T08:22:28.577Z,13.10
2017-10-01T08:24:58.284Z,12.65
2017-10-01T08:27:39.374Z,13.70
2017-10-01T08:30:15.339Z,12.30
2017-10-01T08:32:44.198Z,12.43
2017-10-01T08:35:14.792Z,13.45
2017-10-01T08:37:43.662Z,12.37
2017-10-01T08:40:12.519Z,12.50
2017-10-01T08:42:46.958Z,12.23
2017-10-01T08:45:16.676Z,13.18
2017-10-01T08:47:45.523Z,13.95
2017-10-01T08:50:14.368Z,14.52
2017-10-01T08:52:44.202Z,13.50
2017-10-01T08:55:13.066Z,13.10
2017-10-01T08:57:41.913Z,14.50
2017-10-01T09:00:10.780Z,13.55
2017-10-01T09:02:39.648Z,13.95
2017-10-01T09:05:08.545Z,13.60
2017-10-01T09:07:37.398Z,13.43
2017-10-01T09:10:07.464Z,13.00
2017-10-01T09:12:37.205Z,14.25
2017-10-01T09:15:07.776Z,12.90
2017-10-01T09:17:36.644Z,13.55
2017-10-01T09:20:06.265Z,14.10
2017-10-01T09:22:37.379Z,12.82
2017-10-01T09:25:08.214Z,12.30
2017-10-01T09:27:37.078Z,12.43
2017-10-01T09:30:10.544Z,12.30
2017-10-01T09:32:41.679Z,11.00
2017-10-01T09:35:24.643Z,10.48
2017-10-01T09:43:40.842Z,12.10
2017-10-01T09:46:15.966Z,11.63
2017-10-01T09:51:52.874Z,10.60
2017-10-01T09:54:21.723Z,11.00
2017-10-01T09:56:51.423Z,9.63
2017-10-01T09:59:20.290Z,8.40
2017-10-01T10:02:04.442Z,7.40
2017-10-01T10:04:36.126Z,9.65
2017-10-01T10:07:04.689Z,10.32
2017-10-01T10:09:33.529Z,9.80
2017-10-01T10:12:03.050Z,8.15
2017-10-01T10:14:32.650Z,7.78
2017-10-01T10:17:02.398Z,7.80
2017-10-01T10:19:35.583Z,6.40
2017-10-01T10:22:04.998Z,6.15
2017-10-01T10:24:33.977Z,6.18
2017-10-01T10:27:02.806Z,6.20
2017-10-01T10:29:31.681Z,6.95
2017-10-01T10:32:00.519Z,6.25
2017-10-01T10:34:29.397Z,5.40
2017-10-01T10:36:59.900Z,4.57
2017-10-01T10:39:28.733Z,4.00
2017-10-01T10:41:57.569Z,5.20
2017-10-01T10:44:27.337Z,3.78
2017-10-01T10:46:56.997Z,3.15
2017-10-01T10:49:25.856Z,3.10
2017-10-01T10:51:55.346Z,1.75
2017-10-01T10:54:24.205Z,2.45
2017-10-01T10:56:53.083Z,1.95
2017-10-01T10:59:21.936Z,2.75
2017-10-01T11:01:50.773Z,2.00
2017-10-01T11:04:19.610Z,1.67
2017-10-01T11:06:48.460Z,1.77
2017-10-01T11:09:17.302Z,1.62
2017-10-01T11:11:46.130Z,1.80
2017-10-01T11:14:15.555Z,1.40
2017-10-01T11:16:44.393Z,1.62
2017-10-01T11:19:13.222Z,1.98
2017-10-01T11:21:42.058Z,1.00
2017-10-01T11:24:12.137Z,1.60
2017-10-01T11:26:41.642Z,1.02
2017-10-01T11:29:10.542Z,1.15
2017-10-01T11:31:39.428Z,1.27
2017-10-01T11:34:09.980Z,1.00
2017-10-01T11:36:40.193Z,1.60
2017-10-01T11:39:09.034Z,1.35
2017-10-01T11:41:39.807Z,1.35
2017-10-01T11:44:08.654Z,1.33
2017-10-01T11:46:37.504Z,1.27
2017-10-01T11:49:06.361Z,1.40
2017-10-01T11:51:35.195Z,0.95
2017-10-01T11:54:04.066Z,1.48
2017-10-01T11:56:33.889Z,1.40
2017-10-01T11:59:03.357Z,1.42
2017-10-01T12:01:32.861Z,1.40
2017-10-01T12:04:02.464Z,1.60
2017-10-01T12:06:31.368Z,1.70
2017-10-01T12:09:00.849Z,1.98
2017-10-01T12:11:29.761Z,1.52
2017-10-01T12:13:59.178Z,1.52
2017-10-01T12:16:28.392Z,1.92
2017-10-01T12:18:57.255Z,1.27
2017-10-01T12:21:26.090Z,1.45
2017-10-01T12:23:56.722Z,1.40
2017-10-01T12:26:25.562Z,0.90
2017-10-01T12:28:54.427Z,1.20
2017-10-01T12:31:24.026Z,0.75
2017-10-01T12:33:54.313Z,0.93
2017-10-01T12:36:25.051Z,1.50
2017-10-01T12:38:53.890Z,0.95
2017-10-01T12:41:24.263Z,0.73
2017-10-01T12:43:53.110Z,1.10
2017-10-01T12:46:21.941Z,0.90
2017-10-01T12:48:51.800Z,1.48
2017-10-01T12:51:23.277Z,1.27
2017-10-01T12:53:52.178Z,1.48
2017-10-01T12:56:20.830Z,1.98
2017-10-01T12:58:50.438Z,1.60
2017-10-01T13:01:34.740Z,1.70
2017-10-01T13:04:03.417Z,2.08
2017-10-01T13:06:33.889Z,1.62
2017-10-01T13:09:03.843Z,1.98
2017-10-01T13:11:32.681Z,1.80
2017-10-01T13:14:01.370Z,2.08
2017-10-01T13:16:30.840Z,3.03
2017-10-01T13:19:00.566Z,2.10
2017-10-01T13:21:30.399Z,2.05
2017-10-01T13:23:59.254Z,1.60
2017-10-01T13:26:28.101Z,1.60
2017-10-01T13:28:56.937Z,1.62
2017-10-01T13:31:25.516Z,2.00
2017-10-01T13:36:27.949Z,1.80
2017-10-01T13:38:56.785Z,1.70
2017-10-01T13:41:25.629Z,1.73
2017-10-01T13:43:54.485Z,1.70
2017-10-01T13:46:24.090Z,2.25
2017-10-01T13:48:52.937Z,1.80
2017-10-01T13:51:21.765Z,1.75
2017-10-01T13:53:50.617Z,2.30
2017-10-01T13:56:19.450Z,2.05
2017-10-01T13:58:48.951Z,2.70
2017-10-01T14:01:17.807Z,2.40
2017-10-01T14:03:46.733Z,2.47
2017-10-01T14:06:15.569Z,1.85
2017-10-01T14:08:44.410Z,2.10
2017-10-01T14:11:13.235Z,2.22
2017-10-01T14:13:42.070Z,2.55
2017-10-01T14:16:11.675Z,2.97
2017-10-01T14:18:41.282Z,2.35
2017-10-01T14:21:11.099Z,2.10
2017-10-01T14:23:40.705Z,2.75
2017-10-01T14:26:10.310Z,2.60
2017-10-01T14:28:39.922Z,3.37
2017-10-01T14:31:14.945Z,3.00
2017-10-01T14:33:43.794Z,3.15
2017-10-01T14:36:13.593Z,3.05
2017-10-01T14:38:42.430Z,3.65
2017-10-01T14:41:11.468Z,3.05
2017-10-01T14:43:40.315Z,3.05
2017-10-01T14:46:09.157Z,3.17
2017-10-01T14:48:37.993Z,3.15
2017-10-01T14:51:06.841Z,2.97
2017-10-01T14:53:35.721Z,3.30
2017-10-01T14:56:05.356Z,3.53
2017-10-01T14:58:34.218Z,2.75
2017-10-01T15:01:03.057Z,3.00
2017-10-01T15:03:31.888Z,3.70
2017-10-01T15:06:01.486Z,3.28
2017-10-01T15:08:30.134Z,3.70
2017-10-01T15:10:58.971Z,3.40
2017-10-01T15:13:30.214Z,3.20
2017-10-01T15:15:59.822Z,3.10
2017-10-01T15:18:29.427Z,3.55
2017-10-01T15:20:58.266Z,4.43
2017-10-01T15:23:27.890Z,3.72
2017-10-01T15:25:56.734Z,3.25
2017-10-01T15:28:26.348Z,4.20
2017-10-01T15:30:55.239Z,4.00
2017-10-01T15:33:25.134Z,3.70
2017-10-01T15:35:54.886Z,3.37
2017-10-01T15:38:24.276Z,3.10
2017-10-01T15:40:55.193Z,3.70
2017-10-01T15:43:26.816Z,3.95
2017-10-01T15:45:56.015Z,3.50
2017-10-01T15:48:25.701Z,3.78
2017-10-01T15:50:54.514Z,3.95
2017-10-01T15:53:23.952Z,4.10
2017-10-01T15:55:52.778Z,4.55
2017-10-01T15:58:21.322Z,4.10
2017-10-01T16:00:50.921Z,3.55
2017-10-01T16:03:19.758Z,4.70
2017-10-01T16:05:48.593Z,4.37
2017-10-01T16:08:17.732Z,4.05
2017-10-01T16:10:46.574Z,3.50
2017-10-01T16:13:15.437Z,3.97
2017-10-01T16:15:44.304Z,3.40
2017-10-01T16:18:13.143Z,3.50
2017-10-01T16:20:41.986Z,3.25
2017-10-01T16:23:11.603Z,3.72
2017-10-01T16:25:40.446Z,3.65
2017-10-01T16:28:09.302Z,2.97
2017-10-01T16:30:38.148Z,3.15
2017-10-01T16:33:07.792Z,3.08
2017-10-01T16:35:37.454Z,2.95
2017-10-01T16:38:06.294Z,3.03
2017-10-01T16:40:35.909Z,3.10
2017-10-01T16:43:04.783Z,2.67
2017-10-01T16:45:33.634Z,2.90
2017-10-01T16:48:02.482Z,2.90
2017-10-01T16:50:31.332Z,3.28
2017-10-01T16:53:00.935Z,2.83
2017-10-01T16:55:30.542Z,2.53
2017-10-01T16:58:00.341Z,2.80
2017-10-01T17:00:29.187Z,3.00
2017-10-01T17:02:58.031Z,2.87
2017-10-01T17:05:26.874Z,2.80
2017-10-01T17:07:55.701Z,3.58
2017-10-01T17:10:25.047Z,4.45
2017-10-01T17:12:53.889Z,3.15
2017-10-01T17:15:23.321Z,4.57
2017-10-01T17:17:52.922Z,3.90
2017-10-01T17:20:22.525Z,3.87
2017-10-01T17:22:51.346Z,4.22
2017-10-01T17:25:20.943Z,4.28
2017-10-01T17:27:50.539Z,5.10
2017-10-01T17:30:19.364Z,5.10
2017-10-01T17:32:48.206Z,4.12
2017-10-01T17:35:17.833Z,5.80
2017-10-01T17:37:47.431Z,3.97
2017-10-01T17:40:16.287Z,5.10
2017-10-01T17:42:45.134Z,4.12
2017-10-01T17:45:14.558Z,4.60
2017-10-01T17:47:43.385Z,5.00
2017-10-01T17:50:12.569Z,4.00
2017-10-01T17:52:41.406Z,4.87
2017-10-01T17:55:11.028Z,4.22
2017-10-01T17:57:40.621Z,4.32
2017-10-01T18:00:10.223Z,3.83
2017-10-01T18:02:40.395Z,4.97
2017-10-01T18:05:09.263Z,4.82
2017-10-01T18:07:38.128Z,5.55
2017-10-01T18:10:07.005Z,5.57
2017-10-01T18:12:35.837Z,4.45
2017-10-01T18:15:05.296Z,5.43
2017-10-01T18:17:34.190Z,3.80
2017-10-01T18:20:05.372Z,3.65
2017-10-01T18:22:35.138Z,3.55
2017-10-01T18:25:03.994Z,3.70
2017-10-01T18:27:32.845Z,4.12
2017-10-01T18:30:01.701Z,3.08
2017-10-01T18:32:30.544Z,3.37
2017-10-01T18:35:00.439Z,3.15
2017-10-01T18:37:30.043Z,3.25
2017-10-01T18:39:58.877Z,3.60
2017-10-01T18:42:27.713Z,3.42
2017-10-01T18:45:01.111Z,3.70
2017-10-01T18:47:32.382Z,4.20
2017-10-01T18:50:01.810Z,3.83
2017-10-01T18:52:30.663Z,4.30
2017-10-01T18:55:00.947Z,4.75
2017-10-01T18:57:29.815Z,4.57
2017-10-01T19:00:07.970Z,3.62
2017-10-01T19:02:37.315Z,4.15
2017-10-01T19:05:06.943Z,4.32
2017-10-01T19:07:35.790Z,4.97
2017-10-01T19:12:40.214Z,7.53
2017-10-01T19:15:09.744Z,8.77
2017-10-01T19:17:39.363Z,7.75
2017-10-01T19:20:10.573Z,6.57
2017-10-01T19:22:44.242Z,7.03
2017-10-01T19:25:14.070Z,6.95
2017-10-01T19:27:42.946Z,6.87
2017-10-01T19:30:12.558Z,7.25
2017-10-01T19:35:56.882Z,7.43
2017-10-01T19:38:28.686Z,7.47
2017-10-01T19:40:57.553Z,20.98
2017-10-01T19:43:27.203Z,8.93
2017-10-01T19:45:56.066Z,9.75
2017-10-01T19:48:24.939Z,9.40
2017-10-01T19:50:53.794Z,10.07
2017-10-01T19:53:30.010Z,9.60
2017-10-01T19:56:00.251Z,12.48
2017-10-01T19:58:30.196Z,12.10
2017-10-01T20:00:58.391Z,13.30
2017-10-01T20:03:28.561Z,13.55
2017-10-01T20:05:58.172Z,12.20
2017-10-01T20:08:27.024Z,13.35
2017-10-01T20:10:56.667Z,14.43
2017-10-01T20:13:25.521Z,14.43
2017-10-01T20:15:55.974Z,12.68
2017-10-01T20:18:24.842Z,12.52
2017-10-01T20:20:54.681Z,13.05
2017-10-01T20:23:23.557Z,15.35
2017-10-01T20:25:53.014Z,13.93
2017-10-01T20:28:22.664Z,13.30
2017-10-01T20:30:53.807Z,14.77
2017-10-01T20:33:23.443Z,12.85
2017-10-01T20:38:25.295Z,15.48
2017-10-01T20:40:54.939Z,14.57
2017-10-01T20:43:24.951Z,15.10
2017-10-01T20:45:53.831Z,15.35
2017-10-01T20:48:22.679Z,16.00
2017-10-01T20:50:51.525Z,17.05
2017-10-01T20:53:20.369Z,15.88
2017-10-01T20:55:49.214Z,17.20
2017-10-01T20:58:18.050Z,17.17
2017-10-01T21:00:46.894Z,17.27
2017-10-01T21:03:15.739Z,17.00
2017-10-01T21:05:44.608Z,18.83
2017-10-01T21:08:13.458Z,19.27
2017-10-01T21:10:41.953Z,19.45
2017-10-01T21:13:10.449Z,19.60
2017-10-01T21:15:39.295Z,19.00
2017-10-01T21:18:08.910Z,20.70
2017-10-01T21:20:37.758Z,19.62
2017-10-01T21:23:06.610Z,21.08
2017-10-01T21:25:35.459Z,20.70
2017-10-01T21:28:08.863Z,22.50
2017-10-01T21:30:39.064Z,19.75
2017-10-01T21:33:08.192Z,21.27
2017-10-01T21:35:37.799Z,20.95
2017-10-01T21:38:07.422Z,21.80
2017-10-01T21:40:36.274Z,20.92
2017-10-01T21:43:05.131Z,20.88
2017-10-01T21:45:34.303Z,20.95
2017-10-01T21:48:03.157Z,22.50
2017-10-01T21:50:32.001Z,19.48
2017-10-01T21:53:00.848Z,20.95
2017-10-01T21:55:29.697Z,21.15
2017-10-01T21:57:58.560Z,21.35
2017-10-01T22:00:27.419Z,23.08
2017-10-01T22:02:56.266Z,19.73
2017-10-01T22:05:25.349Z,20.77
2017-10-01T22:07:54.203Z,21.23
2017-10-01T22:10:23.833Z,20.27
2017-10-01T22:12:53.475Z,23.23
2017-10-01T22:15:22.316Z,22.95
2017-10-01T22:17:52.761Z,21.67
2017-10-01T22:20:21.606Z,19.40
2017-10-01T22:22:50.454Z,22.23
2017-10-01T22:25:19.294Z,21.42
2017-10-01T22:27:48.135Z,23.40
2017-10-01T22:30:16.620Z,22.98
2017-10-01T22:32:45.457Z,22.35
2017-10-01T22:35:14.309Z,21.23
2017-10-01T22:37:43.160Z,24.23
2017-10-01T22:40:12.770Z,23.65
2017-10-01T22:42:42.393Z,23.15
2017-10-01T22:45:11.238Z,25.35
2017-10-01T22:47:40.093Z,22.00
2017-10-01T22:50:09.707Z,24.15
2017-10-01T22:52:38.555Z,23.85
2017-10-01T22:55:08.174Z,23.35
2017-10-01T22:57:38.608Z,24.50
2017-10-01T23:00:07.126Z,23.23
2017-10-01T23:02:36.534Z,24.42
2017-10-01T23:05:05.921Z,25.20
2017-10-01T23:07:34.772Z,24.15
2017-10-01T23:10:04.402Z,24.52
2017-10-01T23:12:33.256Z,24.48
2017-10-01T23:15:02.107Z,24.50
2017-10-01T23:17:30.950Z,24.63
2017-10-01T23:19:59.790Z,25.00
2017-10-01T23:22:28.639Z,23.70
2017-10-01T23:24:58.243Z,24.10
2017-10-01T23:27:27.841Z,25.98
2017-10-01T23:29:56.677Z,24.40
2017-10-01T23:32:25.525Z,25.05
2017-10-01T23:34:54.365Z,23.58
2017-10-01T23:37:23.218Z,24.95
2017-10-01T23:39:52.830Z,25.00
2017-10-01T23:42:22.429Z,24.70
2017-10-01T23:44:51.269Z,26.20
2017-10-01T23:47:19.766Z,25.83
2017-10-01T23:49:48.617Z,24.70
2017-10-01T23:52:17.467Z,25.30
2017-10-01T23:54:46.314Z,25.67
2017-10-01T23:57:15.163Z,23.77
2017-10-01T23:59:44.019Z,27.92
